Time;durP1;ratioP1;P1;durP2;ratioP2;P2;SDS_P1;SDS_P2;PMS_P1;PMS_P2;Temp;Humidity;BMP_temperature;BMP_pressure;BME280_temperature;BME280_humidity;BME280_pressure;Samples;Min_cycle;Max_cycle;Signal;HPM_P1;HPM_P2
2023/12/18 00:01:36;;;;;;;25.08;11.80;;;7.70;99.90;;;;;;4975330;28;20062;-63
2023/12/18 00:04:03;;;;;;;19.50;11.55;;;7.70;99.90;;;;;;4974359;28;20141;-64
2023/12/18 00:06:30;;;;;;;22.92;11.50;;;7.70;99.90;;;;;;4973514;28;20083;-64
2023/12/18 00:08:56;;;;;;;18.95;11.02;;;7.60;99.90;;;;;;4978894;28;20050;-63
2023/12/18 00:11:22;;;;;;;22.85;12.15;;;7.70;99.90;;;;;;4976321;28;20391;-64
2023/12/18 00:13:49;;;;;;;22.38;11.45;;;7.70;99.90;;;;;;4977398;28;20068;-63
2023/12/18 00:16:15;;;;;;;20.70;11.80;;;7.60;99.90;;;;;;4975081;28;20054;-62
2023/12/18 00:18:42;;;;;;;17.83;10.82;;;7.60;99.90;;;;;;4975023;28;20050;-63
2023/12/18 00:21:08;;;;;;;21.20;11.88;;;7.60;99.90;;;;;;4960355;28;20054;-63
2023/12/18 00:23:34;;;;;;;18.50;10.90;;;7.70;99.90;;;;;;4953660;28;20054;-63
2023/12/18 00:26:01;;;;;;;22.35;11.32;;;7.70;99.90;;;;;;4969603;28;20061;-63
2023/12/18 00:28:27;;;;;;;21.77;11.52;;;7.70;99.90;;;;;;4968970;28;20050;-63
2023/12/18 00:30:53;;;;;;;18.40;10.38;;;7.70;99.90;;;;;;4969458;28;20074;-62
2023/12/18 00:33:20;;;;;;;18.60;10.38;;;7.70;99.90;;;;;;4989139;28;20081;-61
2023/12/18 00:35:48;;;;;;;21.58;10.82;;;7.80;99.90;;;;;;4989042;28;20050;-61
2023/12/18 00:38:14;;;;;;;16.75;10.35;;;7.70;99.90;;;;;;4972468;28;20115;-63
2023/12/18 00:40:41;;;;;;;19.63;10.93;;;7.80;99.90;;;;;;4989082;28;20553;-63
2023/12/18 00:43:07;;;;;;;20.55;11.23;;;7.80;99.90;;;;;;4988488;28;20046;-63
2023/12/18 00:45:33;;;;;;;18.13;11.02;;;7.70;99.90;;;;;;4988901;28;20072;-62
2023/12/18 00:48:00;;;;;;;21.30;11.18;;;7.80;99.90;;;;;;4988180;28;20485;-63
2023/12/18 00:50:26;;;;;;;19.08;11.77;;;7.70;99.90;;;;;;4988728;28;20545;-62
2023/12/18 00:52:53;;;;;;;19.70;10.88;;;7.80;99.90;;;;;;4988049;28;20047;-63
2023/12/18 00:55:19;;;;;;;18.90;11.00;;;7.80;99.90;;;;;;4972183;28;20137;-61
2023/12/18 00:57:45;;;;;;;17.35;10.52;;;7.80;99.90;;;;;;4988291;28;20064;-62
2023/12/18 01:00:12;;;;;;;18.77;10.52;;;7.70;99.90;;;;;;4988408;28;20058;-62
2023/12/18 01:02:38;;;;;;;17.17;10.05;;;7.70;99.90;;;;;;4988407;28;20046;-62
2023/12/18 01:05:05;;;;;;;17.33;11.13;;;7.80;99.90;;;;;;4972925;28;20077;-62
2023/12/18 01:07:31;;;;;;;23.67;10.95;;;7.60;99.90;;;;;;4987850;28;20054;-62
2023/12/18 01:10:00;;;;;;;19.55;10.68;;;7.60;99.90;;;;;;4972095;28;20125;-63
2023/12/18 01:12:27;;;;;;;15.65;10.63;;;7.80;99.90;;;;;;4988359;28;20515;-63
2023/12/18 01:14:53;;;;;;;19.58;12.30;;;7.60;99.90;;;;;;4972278;28;20059;-63
2023/12/18 01:17:19;;;;;;;18.73;11.20;;;7.60;99.90;;;;;;4988197;28;20073;-63
2023/12/18 01:19:46;;;;;;;20.38;11.38;;;7.70;99.90;;;;;;4987542;28;20054;-63
2023/12/18 01:22:12;;;;;;;22.55;11.00;;;7.70;99.90;;;;;;4971747;28;20054;-63
2023/12/18 01:24:38;;;;;;;20.60;11.35;;;7.60;99.90;;;;;;4987716;28;20133;-63
2023/12/18 01:27:05;;;;;;;19.02;11.93;;;7.90;99.90;;;;;;4988086;28;20050;-63
2023/12/18 01:29:32;;;;;;;22.13;11.48;;;7.90;99.90;;;;;;4987859;28;20050;-63
2023/12/18 01:31:58;;;;;;;22.38;12.77;;;7.70;99.90;;;;;;4987854;28;20054;-63
2023/12/18 01:34:24;;;;;;;18.38;11.30;;;7.70;99.90;;;;;;4988182;28;20134;-62
2023/12/18 01:36:51;;;;;;;21.98;12.45;;;7.80;99.90;;;;;;4987604;28;20050;-62
2023/12/18 01:39:17;;;;;;;18.60;12.18;;;7.70;99.90;;;;;;4987242;28;20054;-63
2023/12/18 01:41:44;;;;;;;17.73;11.02;;;7.70;99.90;;;;;;4987917;28;20046;-63
2023/12/18 01:44:10;;;;;;;22.83;12.70;;;7.80;99.90;;;;;;4986873;28;20054;-62
2023/12/18 01:46:37;;;;;;;18.58;11.55;;;7.90;99.90;;;;;;4971494;28;20085;-62
2023/12/18 01:49:04;;;;;;;20.35;12.48;;;7.70;99.90;;;;;;4987432;28;20054;-63
2023/12/18 01:51:30;;;;;;;24.23;12.40;;;7.70;99.90;;;;;;4987689;28;20062;-63
2023/12/18 01:54:00;;;;;;;20.88;12.75;;;7.70;99.90;;;;;;5476372;22;21024;-66
2023/12/18 01:56:30;;;;;;;21.60;12.73;;;7.80;99.90;;;;;;5005339;28;20748;-61
2023/12/18 01:58:59;;;;;;;20.25;12.30;;;7.70;99.90;;;;;;5011201;28;20374;-61
2023/12/18 02:01:27;;;;;;;19.77;12.55;;;7.90;99.90;;;;;;5010548;28;20473;-60
2023/12/18 02:03:54;;;;;;;17.05;11.13;;;7.90;99.90;;;;;;5011566;28;20457;-60
2023/12/18 02:06:21;;;;;;;20.38;12.65;;;7.90;99.90;;;;;;5010299;28;20064;-61
2023/12/18 02:08:48;;;;;;;21.35;12.15;;;7.80;99.90;;;;;;5010612;28;20049;-61
2023/12/18 02:11:14;;;;;;;22.70;12.75;;;7.90;99.90;;;;;;5011051;28;20042;-61
2023/12/18 02:13:41;;;;;;;18.15;12.23;;;7.70;99.90;;;;;;5011680;28;20077;-61
2023/12/18 02:16:08;;;;;;;25.98;12.52;;;7.90;99.90;;;;;;5009806;28;20049;-62
2023/12/18 02:18:43;;;;;;;17.85;11.73;;;7.80;99.90;;;;;;5026913;28;20065;-61
2023/12/18 02:21:09;;;;;;;17.20;11.57;;;7.90;99.90;;;;;;5010435;28;20065;-60
2023/12/18 02:23:36;;;;;;;21.67;11.50;;;7.80;99.90;;;;;;5010534;28;20617;-60
2023/12/18 02:26:02;;;;;;;20.25;11.38;;;7.80;99.90;;;;;;5010633;28;20282;-61
2023/12/18 02:28:30;;;;;;;23.02;11.60;;;7.80;99.90;;;;;;5011010;28;20073;-61
2023/12/18 02:30:56;;;;;;;22.88;12.43;;;7.70;99.90;;;;;;5010353;28;20085;-61
2023/12/18 02:33:23;;;;;;;18.95;11.10;;;7.90;99.90;;;;;;4993482;28;20057;-61
2023/12/18 02:35:49;;;;;;;21.45;12.02;;;7.70;99.90;;;;;;5009439;28;20382;-62
2023/12/18 02:38:15;;;;;;;24.15;12.32;;;7.90;99.90;;;;;;5009742;28;20058;-62
2023/12/18 02:40:42;;;;;;;19.15;11.95;;;7.80;99.90;;;;;;5011198;28;20492;-61
2023/12/18 02:43:10;;;;;;;21.63;11.57;;;8.00;99.90;;;;;;5009891;28;20080;-61
2023/12/18 02:45:37;;;;;;;21.05;11.75;;;8.00;99.90;;;;;;5010958;28;20338;-63
2023/12/18 02:48:04;;;;;;;20.08;12.13;;;7.90;99.90;;;;;;4994238;28;20060;-61
2023/12/18 02:50:30;;;;;;;19.67;11.48;;;7.90;99.90;;;;;;5009612;28;20057;-61
2023/12/18 02:52:56;;;;;;;20.00;11.88;;;8.00;99.90;;;;;;5010573;28;20057;-61
2023/12/18 02:55:23;;;;;;;18.83;11.32;;;7.80;99.90;;;;;;5008018;28;20060;-62
2023/12/18 02:57:49;;;;;;;19.40;11.15;;;7.80;99.90;;;;;;5009811;28;20529;-61
2023/12/18 03:00:16;;;;;;;18.08;12.13;;;7.90;99.90;;;;;;5010802;28;20103;-61
2023/12/18 03:02:42;;;;;;;18.98;12.15;;;7.80;99.90;;;;;;5009725;28;20046;-62
2023/12/18 03:05:09;;;;;;;19.83;12.05;;;8.00;99.90;;;;;;5009349;28;20574;-61
2023/12/18 03:07:35;;;;;;;20.20;12.23;;;8.00;99.90;;;;;;5009739;28;20104;-61
2023/12/18 03:10:02;;;;;;;19.63;12.23;;;7.90;99.90;;;;;;5010462;28;20056;-61
2023/12/18 03:12:29;;;;;;;21.83;10.90;;;8.00;99.90;;;;;;5009800;28;20325;-61
2023/12/18 03:14:55;;;;;;;20.95;12.60;;;7.90;99.90;;;;;;4993282;28;20046;-60
2023/12/18 03:17:21;;;;;;;18.27;12.23;;;8.00;99.90;;;;;;4993310;28;20056;-62
2023/12/18 03:19:48;;;;;;;20.45;12.13;;;8.00;99.90;;;;;;5009187;28;20061;-62
2023/12/18 03:22:14;;;;;;;20.05;12.80;;;8.00;99.90;;;;;;5010403;28;20050;-62
2023/12/18 03:24:42;;;;;;;17.83;10.80;;;8.00;99.90;;;;;;5010093;28;20038;-62
2023/12/18 03:27:09;;;;;;;19.65;11.68;;;8.00;99.90;;;;;;5010481;28;20058;-62
2023/12/18 03:29:36;;;;;;;19.60;12.18;;;7.90;99.90;;;;;;5007597;28;20369;-62
2023/12/18 03:32:03;;;;;;;19.65;11.77;;;7.80;99.90;;;;;;5010218;28;20045;-62
2023/12/18 03:34:30;;;;;;;20.55;12.18;;;8.00;99.90;;;;;;5009755;28;20146;-62
2023/12/18 03:36:57;;;;;;;17.48;11.50;;;7.80;99.90;;;;;;5010142;28;20161;-62
2023/12/18 03:39:23;;;;;;;22.88;12.45;;;7.80;99.90;;;;;;5009828;28;20053;-62
2023/12/18 03:41:49;;;;;;;20.73;11.23;;;7.80;99.90;;;;;;5008804;28;20057;-62
2023/12/18 03:44:16;;;;;;;27.60;12.30;;;7.90;99.90;;;;;;5009629;28;20069;-62
2023/12/18 03:46:43;;;;;;;19.55;11.45;;;7.80;99.90;;;;;;5009919;28;20499;-62
2023/12/18 03:49:09;;;;;;;18.35;11.07;;;7.80;99.90;;;;;;5010257;28;20046;-60
2023/12/18 03:51:35;;;;;;;19.60;11.10;;;7.80;99.90;;;;;;5009912;28;20133;-62
2023/12/18 03:54:02;;;;;;;25.42;11.48;;;7.80;99.90;;;;;;5008382;28;20060;-61
2023/12/18 03:56:28;;;;;;;20.40;10.73;;;7.70;99.90;;;;;;5008952;28;20374;-60
2023/12/18 03:58:54;;;;;;;18.98;11.00;;;7.80;99.90;;;;;;5008738;28;20046;-62
2023/12/18 04:01:21;;;;;;;21.38;11.80;;;7.80;99.90;;;;;;5008977;28;20053;-62
2023/12/18 04:03:54;;;;;;;16.95;10.85;;;7.80;99.90;;;;;;5008517;28;20046;-63
2023/12/18 04:06:20;;;;;;;18.33;10.30;;;7.80;99.90;;;;;;5008179;28;20489;-61
2023/12/18 04:08:47;;;;;;;19.00;11.07;;;7.90;99.90;;;;;;5008545;28;20068;-62
2023/12/18 04:11:15;;;;;;;19.98;11.00;;;7.80;99.90;;;;;;5009553;28;20046;-62
2023/12/18 04:13:42;;;;;;;17.35;11.27;;;7.90;99.90;;;;;;5009853;28;20119;-61
2023/12/18 04:16:08;;;;;;;20.00;10.82;;;7.90;99.90;;;;;;5009191;28;20037;-63
2023/12/18 04:18:35;;;;;;;16.92;10.45;;;8.00;99.90;;;;;;5008595;28;20108;-63
2023/12/18 04:21:02;;;;;;;16.88;10.15;;;8.00;99.90;;;;;;5009745;28;20064;-61
2023/12/18 04:23:28;;;;;;;18.25;10.40;;;8.00;99.90;;;;;;5009659;28;20065;-63
2023/12/18 04:25:55;;;;;;;21.65;11.15;;;7.90;99.90;;;;;;5008363;28;20378;-62
2023/12/18 04:28:21;;;;;;;19.17;11.65;;;7.90;99.90;;;;;;5008492;28;20061;-62
2023/12/18 04:30:47;;;;;;;21.20;10.45;;;8.10;99.90;;;;;;4992407;28;20457;-62
2023/12/18 04:33:14;;;;;;;16.20;9.65;;;7.90;99.90;;;;;;5008202;28;20049;-63
2023/12/18 04:35:41;;;;;;;18.83;10.15;;;7.90;99.90;;;;;;5008074;28;20054;-63
2023/12/18 04:38:07;;;;;;;15.88;10.48;;;8.00;99.90;;;;;;5009420;28;20103;-62
2023/12/18 04:40:34;;;;;;;15.45;10.13;;;7.90;99.90;;;;;;5007884;28;20061;-63
2023/12/18 04:43:00;;;;;;;18.00;10.43;;;7.90;99.90;;;;;;5008672;28;20068;-63
2023/12/18 04:45:26;;;;;;;17.50;10.20;;;8.10;99.90;;;;;;5008897;28;20062;-63
2023/12/18 04:47:53;;;;;;;21.73;10.40;;;8.00;99.90;;;;;;5008427;28;20441;-63
2023/12/18 04:50:19;;;;;;;15.98;10.23;;;8.00;99.90;;;;;;5008146;28;20054;-63
2023/12/18 04:52:45;;;;;;;18.27;10.40;;;8.00;99.90;;;;;;5008067;28;20145;-62
2023/12/18 04:55:11;;;;;;;16.33;10.00;;;7.90;99.90;;;;;;5007675;28;20065;-63
2023/12/18 04:57:38;;;;;;;18.70;10.68;;;8.00;99.90;;;;;;5007598;28;20053;-61
2023/12/18 05:00:05;;;;;;;23.38;12.15;;;8.00;99.90;;;;;;5008502;28;20460;-63
2023/12/18 05:02:32;;;;;;;19.30;10.93;;;8.00;99.90;;;;;;4991828;28;20049;-61
2023/12/18 05:04:58;;;;;;;20.52;11.05;;;7.90;99.90;;;;;;5008937;28;20041;-62
2023/12/18 05:07:26;;;;;;;17.63;10.30;;;7.90;99.90;;;;;;5007353;28;20153;-63
2023/12/18 05:09:52;;;;;;;15.07;10.25;;;7.90;99.90;;;;;;5007088;28;20064;-62
2023/12/18 05:12:19;;;;;;;18.63;11.25;;;7.90;99.90;;;;;;5006670;28;20064;-61
2023/12/18 05:14:45;;;;;;;16.90;11.07;;;8.00;99.90;;;;;;5008027;28;20046;-62
2023/12/18 05:17:11;;;;;;;19.63;11.73;;;8.10;99.90;;;;;;5008115;28;20677;-63
2023/12/18 05:19:38;;;;;;;16.75;10.27;;;8.00;99.90;;;;;;5010526;28;20058;-63
2023/12/18 05:22:04;;;;;;;17.23;10.48;;;7.90;99.90;;;;;;5012744;28;20060;-62
2023/12/18 05:24:30;;;;;;;17.10;10.65;;;8.00;99.90;;;;;;5012372;28;20054;-63
2023/12/18 05:26:56;;;;;;;18.58;10.73;;;7.90;99.90;;;;;;5011684;28;20453;-63
2023/12/18 05:29:23;;;;;;;17.38;11.00;;;8.00;99.90;;;;;;5011559;28;20050;-63
2023/12/18 05:31:49;;;;;;;18.80;10.50;;;8.00;99.90;;;;;;5012299;28;20484;-63
2023/12/18 05:34:15;;;;;;;17.88;10.52;;;8.10;99.90;;;;;;5011057;28;20053;-63
2023/12/18 05:36:42;;;;;;;16.13;10.05;;;7.90;99.90;;;;;;5011573;28;20384;-62
2023/12/18 05:39:08;;;;;;;23.63;9.98;;;8.00;99.90;;;;;;5010723;28;20064;-62
2023/12/18 05:41:34;;;;;;;18.30;10.40;;;8.00;99.90;;;;;;4994964;28;20137;-62
2023/12/18 05:44:01;;;;;;;18.67;9.75;;;7.90;99.90;;;;;;5010602;28;20096;-63
2023/12/18 05:46:27;;;;;;;20.52;11.50;;;7.90;99.90;;;;;;5010717;28;20060;-61
2023/12/18 05:48:53;;;;;;;14.65;10.50;;;7.90;99.90;;;;;;5008002;28;20054;-62
2023/12/18 05:51:24;;;;;;;18.17;11.20;;;7.90;99.90;;;;;;5010522;28;20042;-62
2023/12/18 05:53:50;;;;;;;15.02;10.85;;;8.00;99.90;;;;;;5010386;28;20046;-62
2023/12/18 05:56:17;;;;;;;17.95;10.02;;;7.90;99.90;;;;;;5009866;28;20088;-62
2023/12/18 05:58:43;;;;;;;18.20;10.82;;;8.00;99.90;;;;;;5010544;28;20053;-61
2023/12/18 06:01:10;;;;;;;19.50;11.50;;;8.00;99.90;;;;;;5009607;28;20326;-62
2023/12/18 06:03:36;;;;;;;18.05;10.27;;;7.90;99.90;;;;;;5009767;28;20045;-63
2023/12/18 06:06:02;;;;;;;18.70;11.35;;;7.90;99.90;;;;;;5005273;28;20049;-62
2023/12/18 06:08:29;;;;;;;21.33;11.45;;;7.90;99.90;;;;;;5008457;28;20050;-62
2023/12/18 06:10:55;;;;;;;17.73;11.82;;;7.90;99.90;;;;;;5010055;28;20042;-61
2023/12/18 06:13:21;;;;;;;17.17;11.40;;;8.00;99.90;;;;;;5010500;28;20046;-62
2023/12/18 06:15:48;;;;;;;18.15;10.90;;;7.90;99.90;;;;;;5009424;28;20049;-63
2023/12/18 06:18:14;;;;;;;21.00;11.93;;;8.00;99.90;;;;;;5011201;28;20127;-63
2023/12/18 06:20:40;;;;;;;20.55;11.20;;;7.90;99.90;;;;;;5007083;28;20395;-61
2023/12/18 06:23:07;;;;;;;15.15;10.25;;;8.00;99.90;;;;;;5009890;28;20065;-63
2023/12/18 06:25:33;;;;;;;17.27;10.80;;;7.90;99.90;;;;;;5009698;28;20081;-63
2023/12/18 06:27:59;;;;;;;18.92;10.80;;;7.90;99.90;;;;;;5010142;28;20369;-63
2023/12/18 06:30:25;;;;;;;18.00;10.30;;;7.90;99.90;;;;;;5007662;28;20049;-62
2023/12/18 06:32:52;;;;;;;19.08;10.43;;;7.80;99.90;;;;;;5009835;28;20053;-62
2023/12/18 06:35:18;;;;;;;20.83;11.55;;;7.90;99.90;;;;;;5009678;28;20516;-62
2023/12/18 06:37:45;;;;;;;22.08;10.98;;;8.10;99.90;;;;;;5010834;28;20054;-63
2023/12/18 06:40:11;;;;;;;18.00;10.25;;;8.10;99.90;;;;;;5010042;28;20065;-63
2023/12/18 06:42:38;;;;;;;17.73;10.85;;;7.90;99.90;;;;;;5010305;28;20076;-62
2023/12/18 06:45:05;;;;;;;21.08;11.82;;;7.90;99.90;;;;;;5009328;28;20393;-63
2023/12/18 06:47:32;;;;;;;19.58;11.05;;;8.10;99.90;;;;;;5009689;28;20053;-63
2023/12/18 06:49:58;;;;;;;21.65;10.82;;;8.10;99.90;;;;;;5009483;28;20061;-64
2023/12/18 06:52:24;;;;;;;19.80;10.40;;;8.10;99.90;;;;;;5010548;28;20042;-62
2023/12/18 06:54:51;;;;;;;15.18;10.85;;;8.00;99.90;;;;;;5009329;28;20073;-61
2023/12/18 06:57:17;;;;;;;18.85;11.57;;;8.00;99.90;;;;;;5008814;28;20683;-62
2023/12/18 06:59:44;;;;;;;22.30;11.25;;;7.90;99.90;;;;;;4993631;28;20058;-61
2023/12/18 07:02:11;;;;;;;19.20;10.73;;;8.10;99.90;;;;;;5010377;28;20046;-62
2023/12/18 07:04:37;;;;;;;18.65;11.13;;;8.10;99.90;;;;;;5008240;28;20058;-63
2023/12/18 07:07:04;;;;;;;22.20;11.50;;;8.00;99.90;;;;;;5005742;28;20064;-62
2023/12/18 07:09:30;;;;;;;21.65;11.10;;;8.00;99.90;;;;;;5005758;28;20046;-63
2023/12/18 07:11:56;;;;;;;18.60;10.95;;;8.10;99.90;;;;;;5009122;28;20052;-62
2023/12/18 07:14:23;;;;;;;17.20;10.57;;;8.10;99.90;;;;;;5008968;28;20428;-61
2023/12/18 07:16:52;;;;;;;20.13;11.65;;;7.90;99.90;;;;;;5006775;28;20054;-63
2023/12/18 07:19:19;;;;;;;22.90;12.88;;;8.10;99.90;;;;;;5011561;28;20072;-60
2023/12/18 07:21:45;;;;;;;17.40;11.70;;;7.90;99.90;;;;;;5010853;28;20054;-63
2023/12/18 07:24:12;;;;;;;21.20;13.15;;;7.80;99.90;;;;;;4994262;28;20076;-63
2023/12/18 07:26:38;;;;;;;19.30;13.18;;;8.00;99.90;;;;;;5011998;28;20076;-64
2023/12/18 07:29:05;;;;;;;22.60;13.05;;;7.80;99.90;;;;;;5010970;28;20053;-63
2023/12/18 07:31:31;;;;;;;21.52;12.40;;;7.90;99.90;;;;;;5010667;28;20041;-62
2023/12/18 07:33:57;;;;;;;21.85;13.27;;;7.90;99.90;;;;;;5011781;28;20046;-63
2023/12/18 07:36:23;;;;;;;25.90;14.23;;;7.80;99.90;;;;;;5010881;28;20389;-64
2023/12/18 07:38:50;;;;;;;19.75;14.25;;;7.90;99.90;;;;;;4993325;28;20423;-62
2023/12/18 07:41:17;;;;;;;21.35;13.45;;;7.70;99.90;;;;;;5011137;28;20054;-63
2023/12/18 07:43:43;;;;;;;22.90;13.82;;;7.70;99.90;;;;;;5010387;28;20046;-63
2023/12/18 07:46:18;;;;;;;22.17;13.10;;;7.90;99.90;;;;;;5010534;28;20064;-63
2023/12/18 07:48:48;;;;;;;20.77;12.98;;;7.70;99.90;;;;;;5011359;28;20060;-64
2023/12/18 07:51:15;;;;;;;25.85;14.40;;;7.70;99.90;;;;;;4993998;28;20058;-64
2023/12/18 07:53:42;;;;;;;26.00;14.07;;;7.90;99.90;;;;;;5011353;28;20042;-62
2023/12/18 07:56:08;;;;;;;23.90;14.23;;;7.70;99.90;;;;;;5010624;28;20049;-60
2023/12/18 07:58:34;;;;;;;25.67;15.27;;;7.70;99.90;;;;;;5010317;28;20152;-62
2023/12/18 08:01:03;;;;;;;21.90;14.20;;;7.70;99.90;;;;;;5011898;28;20045;-62
2023/12/18 08:03:29;;;;;;;26.05;15.40;;;7.90;99.90;;;;;;5011781;28;20184;-63
2023/12/18 08:05:56;;;;;;;23.80;13.82;;;7.70;99.90;;;;;;5009755;28;20061;-63
2023/12/18 08:08:22;;;;;;;21.00;13.82;;;7.90;99.90;;;;;;5009396;28;20462;-62
2023/12/18 08:10:48;;;;;;;26.23;14.43;;;7.90;99.90;;;;;;5010246;28;20125;-62
2023/12/18 08:13:15;;;;;;;23.35;14.90;;;7.70;99.90;;;;;;5010578;28;20369;-63
2023/12/18 08:15:42;;;;;;;24.77;12.90;;;7.90;99.90;;;;;;5010677;28;20053;-63
2023/12/18 08:18:08;;;;;;;24.05;14.05;;;7.90;99.90;;;;;;5010635;28;20088;-61
2023/12/18 08:20:34;;;;;;;25.48;14.50;;;7.90;99.90;;;;;;5010471;28;20049;-63
2023/12/18 08:23:01;;;;;;;25.33;14.32;;;8.00;99.90;;;;;;5010720;28;20084;-63
2023/12/18 08:25:27;;;;;;;23.50;14.23;;;8.00;99.90;;;;;;5010556;28;20049;-63
2023/12/18 08:27:54;;;;;;;23.45;14.18;;;8.00;99.90;;;;;;5010093;28;20049;-62
2023/12/18 08:30:20;;;;;;;20.00;13.55;;;8.00;99.90;;;;;;5010500;28;20716;-61
2023/12/18 08:32:46;;;;;;;24.08;13.38;;;8.00;99.90;;;;;;5010299;28;20050;-63
2023/12/18 08:35:13;;;;;;;21.20;13.45;;;8.10;99.90;;;;;;5007393;28;20062;-62
2023/12/18 08:37:39;;;;;;;20.17;13.13;;;8.00;99.90;;;;;;5009266;28;20469;-62
2023/12/18 08:40:06;;;;;;;22.40;13.68;;;8.00;99.90;;;;;;5010253;28;20050;-63
2023/12/18 08:42:32;;;;;;;23.33;13.48;;;7.90;99.90;;;;;;4975820;28;20366;-61
2023/12/18 08:44:59;;;;;;;25.73;15.32;;;8.20;99.90;;;;;;4990546;28;20050;-61
2023/12/18 08:47:26;;;;;;;23.85;14.20;;;8.20;99.90;;;;;;4991847;28;20046;-62
2023/12/18 08:49:52;;;;;;;19.05;13.35;;;8.00;99.90;;;;;;5001873;28;20359;-63
2023/12/18 08:52:19;;;;;;;24.17;13.73;;;8.20;99.90;;;;;;5012093;28;20060;-61
2023/12/18 08:54:45;;;;;;;25.23;14.13;;;8.10;99.90;;;;;;4997419;28;20061;-63
2023/12/18 08:57:12;;;;;;;23.92;15.05;;;8.10;99.90;;;;;;5013543;28;20065;-62
2023/12/18 08:59:38;;;;;;;23.20;14.38;;;8.30;99.90;;;;;;5013806;28;20081;-63
2023/12/18 09:02:04;;;;;;;23.92;14.88;;;8.20;99.90;;;;;;5015117;28;20049;-63
2023/12/18 09:04:31;;;;;;;22.73;15.25;;;8.30;99.90;;;;;;5014821;28;20065;-64
2023/12/18 09:06:57;;;;;;;26.08;15.85;;;8.30;99.90;;;;;;5014793;28;20589;-64
2023/12/18 09:09:23;;;;;;;22.52;14.68;;;8.30;99.90;;;;;;5013542;28;20454;-63
2023/12/18 09:11:50;;;;;;;24.02;14.95;;;8.30;99.90;;;;;;5014727;28;20076;-62
2023/12/18 09:14:16;;;;;;;33.55;14.80;;;8.40;99.90;;;;;;5013837;28;20038;-61
2023/12/18 09:16:42;;;;;;;23.35;14.32;;;8.40;99.90;;;;;;5015111;28;20061;-63
2023/12/18 09:19:09;;;;;;;23.80;15.10;;;8.40;99.90;;;;;;5019500;28;20064;-66
2023/12/18 09:21:35;;;;;;;25.05;16.35;;;8.30;99.90;;;;;;5027806;28;20046;-63
2023/12/18 09:24:01;;;;;;;25.05;15.20;;;8.30;99.90;;;;;;5013765;28;20099;-63
2023/12/18 09:26:28;;;;;;;27.73;15.52;;;8.30;99.90;;;;;;5013131;28;20065;-63
2023/12/18 09:28:54;;;;;;;25.45;15.38;;;8.30;99.90;;;;;;5013782;28;20042;-63
2023/12/18 09:31:21;;;;;;;24.15;15.93;;;8.50;99.90;;;;;;5013189;28;20374;-62
2023/12/18 09:33:47;;;;;;;22.88;15.00;;;8.50;99.90;;;;;;5014663;28;20369;-63
2023/12/18 09:36:14;;;;;;;28.98;15.05;;;8.50;99.90;;;;;;5013909;28;20704;-61
2023/12/18 09:38:40;;;;;;;23.95;15.45;;;8.50;99.90;;;;;;5013903;28;20050;-62
2023/12/18 09:41:07;;;;;;;26.10;15.10;;;8.40;99.90;;;;;;5014356;28;20389;-63
2023/12/18 09:43:34;;;;;;;22.88;14.15;;;8.50;99.90;;;;;;5013263;28;20050;-63
2023/12/18 09:46:02;;;;;;;25.50;15.45;;;8.50;99.90;;;;;;5013320;28;20054;-64
2023/12/18 09:48:28;;;;;;;26.30;15.02;;;8.50;99.90;;;;;;5011611;28;20068;-63
2023/12/18 09:50:55;;;;;;;27.27;15.35;;;8.50;99.90;;;;;;5010739;28;20038;-63
2023/12/18 09:53:21;;;;;;;28.33;16.30;;;8.60;99.90;;;;;;5012208;28;20374;-63
2023/12/18 09:55:50;;;;;;;24.20;15.43;;;8.50;99.90;;;;;;5011721;28;20113;-65
2023/12/18 09:58:21;;;;;;;27.65;15.68;;;8.50;99.90;;;;;;5012188;28;20652;-61
2023/12/18 10:00:48;;;;;;;25.42;15.43;;;8.60;99.90;;;;;;5008134;28;20050;-62
2023/12/18 10:03:16;;;;;;;24.63;15.18;;;8.60;99.90;;;;;;4993031;28;20051;-61
2023/12/18 10:05:43;;;;;;;24.73;15.85;;;8.50;99.90;;;;;;4992341;28;20073;-62
2023/12/18 10:08:12;;;;;;;28.13;14.90;;;8.60;99.90;;;;;;4993865;28;20145;-63
2023/12/18 10:10:41;;;;;;;30.55;17.23;;;8.50;99.90;;;;;;5011035;28;20041;-63
2023/12/18 10:13:13;;;;;;;24.85;15.43;;;8.40;99.90;;;;;;5013651;28;20046;-61
2023/12/18 10:15:42;;;;;;;25.58;14.25;;;8.60;99.90;;;;;;5013679;28;20049;-60
2023/12/18 10:18:11;;;;;;;26.52;16.52;;;8.60;99.90;;;;;;4995795;28;20053;-62
2023/12/18 10:20:41;;;;;;;23.00;15.85;;;8.50;99.90;;;;;;5013351;28;20116;-62
2023/12/18 10:23:07;;;;;;;25.40;15.65;;;8.60;99.90;;;;;;5012479;28;20068;-64
2023/12/18 10:25:34;;;;;;;26.38;16.40;;;8.70;99.90;;;;;;5013366;28;20049;-63
2023/12/18 10:28:04;;;;;;;26.55;15.00;;;8.50;99.90;;;;;;5012041;28;20225;-63
2023/12/18 10:30:30;;;;;;;26.90;15.88;;;8.70;99.90;;;;;;5012611;28;20445;-61
2023/12/18 10:32:56;;;;;;;24.67;15.18;;;8.70;99.90;;;;;;5001471;28;20090;-61
2023/12/18 10:35:24;;;;;;;29.80;15.57;;;8.50;99.90;;;;;;5012737;28;20065;-64
2023/12/18 10:37:54;;;;;;;27.77;15.32;;;8.70;99.90;;;;;;5012786;28;20061;-62
2023/12/18 10:40:23;;;;;;;27.88;15.60;;;8.60;99.90;;;;;;5013032;28;20060;-62
2023/12/18 10:43:10;;;;;;;23.60;14.90;;;8.60;99.90;;;;;;5011897;28;20050;-63
2023/12/18 10:45:39;;;;;;;22.25;15.23;;;8.70;99.90;;;;;;5011989;28;20046;-63
2023/12/18 10:48:11;;;;;;;22.35;14.43;;;8.80;99.90;;;;;;5012647;28;20132;-63
2023/12/18 10:50:41;;;;;;;26.20;16.23;;;8.80;99.90;;;;;;5012762;28;20061;-64
2023/12/18 10:53:11;;;;;;;21.63;14.27;;;8.80;99.90;;;;;;5011834;28;20042;-65
2023/12/18 10:55:40;;;;;;;24.17;15.23;;;8.70;99.90;;;;;;4995874;28;20053;-65
2023/12/18 10:58:10;;;;;;;25.38;15.38;;;8.70;99.90;;;;;;5012413;28;20414;-65
2023/12/18 11:00:39;;;;;;;22.27;14.95;;;8.70;99.90;;;;;;5012387;28;20470;-65
2023/12/18 11:03:06;;;;;;;24.88;14.93;;;8.90;99.90;;;;;;5012369;28;20374;-64
2023/12/18 11:05:35;;;;;;;27.83;16.23;;;8.70;99.90;;;;;;5010581;28;20057;-63
2023/12/18 11:08:04;;;;;;;25.27;15.10;;;8.70;99.90;;;;;;5012069;28;20058;-64
2023/12/18 11:10:30;;;;;;;23.33;17.00;;;8.90;99.90;;;;;;5011503;28;20050;-64
2023/12/18 11:13:22;;;;;;;25.50;15.65;;;8.90;99.90;;;;;;5011649;28;20646;-62
2023/12/18 11:16:12;;;;;;;23.50;15.55;;;8.80;99.90;;;;;;5010757;28;20054;-65
2023/12/18 11:18:58;;;;;;;25.52;15.85;;;8.80;99.90;;;;;;5010053;28;20054;-63
2023/12/18 11:21:24;;;;;;;23.23;15.88;;;8.80;99.90;;;;;;5012605;28;20060;-62
2023/12/18 11:23:50;;;;;;;24.33;14.52;;;8.80;99.90;;;;;;5012400;28;20058;-63
2023/12/18 11:26:19;;;;;;;26.77;15.10;;;8.90;99.90;;;;;;5012220;28;20041;-62
2023/12/18 11:28:48;;;;;;;24.27;15.68;;;9.00;99.90;;;;;;5011802;28;20064;-62
2023/12/18 11:31:20;;;;;;;27.27;15.93;;;9.10;99.90;;;;;;5010741;28;20057;-61
2023/12/18 11:34:01;;;;;;;;;;;9.10;99.90;;;;;;5012508;28;20061;-62
2023/12/18 11:36:27;;;;;;;29.35;14.85;;;8.90;99.90;;;;;;5012148;28;19932;-61
2023/12/18 11:38:56;;;;;;;27.13;15.30;;;8.90;99.90;;;;;;5010550;28;20054;-62
2023/12/18 11:41:37;;;;;;;21.63;15.43;;;9.10;99.90;;;;;;5012220;28;20374;-63
2023/12/18 11:44:07;;;;;;;23.08;14.75;;;9.00;99.90;;;;;;5011800;28;20470;-61
2023/12/18 11:46:34;;;;;;;23.25;15.73;;;8.90;99.90;;;;;;5011990;28;20050;-61
2023/12/18 11:49:02;;;;;;;28.42;15.48;;;9.00;99.90;;;;;;5009651;28;20466;-61
2023/12/18 11:51:30;;;;;;;23.65;15.25;;;9.00;99.90;;;;;;5010848;28;20050;-63
2023/12/18 11:54:01;;;;;;;20.35;15.10;;;9.00;99.90;;;;;;5010748;28;20053;-61
2023/12/18 11:56:36;;;;;;;26.52;15.25;;;8.90;99.90;;;;;;5010485;28;20058;-62
2023/12/18 11:59:03;;;;;;;20.08;14.43;;;8.90;99.90;;;;;;5011141;28;20060;-63
2023/12/18 12:01:30;;;;;;;26.45;15.52;;;9.00;99.90;;;;;;5011457;28;20058;-64
2023/12/18 12:03:58;;;;;;;21.30;14.52;;;8.90;99.90;;;;;;5011633;28;20409;-61
2023/12/18 12:06:26;;;;;;;25.08;16.13;;;8.90;99.90;;;;;;5009628;28;20386;-63
2023/12/18 12:08:55;;;;;;;24.27;15.88;;;9.00;99.90;;;;;;5008763;28;20041;-62
2023/12/18 12:11:26;;;;;;;24.15;14.75;;;9.00;99.90;;;;;;5010797;28;20082;-63
2023/12/18 12:13:56;;;;;;;24.05;14.85;;;9.00;99.90;;;;;;5011104;28;20148;-62
2023/12/18 12:16:23;;;;;;;26.08;14.95;;;8.80;99.90;;;;;;5010706;28;20058;-63
2023/12/18 12:18:50;;;;;;;22.20;15.00;;;9.00;99.90;;;;;;5011048;28;20068;-62
2023/12/18 12:21:17;;;;;;;24.00;15.05;;;8.90;99.90;;;;;;5009818;28;20046;-63
2023/12/18 12:23:47;;;;;;;20.38;14.75;;;9.00;99.90;;;;;;5010125;28;20054;-63
2023/12/18 12:26:18;;;;;;;26.00;15.52;;;8.90;99.90;;;;;;5011399;28;20333;-62
2023/12/18 12:28:44;;;;;;;24.33;15.38;;;9.00;99.90;;;;;;5012825;28;20120;-62
2023/12/18 12:31:11;;;;;;;26.13;16.42;;;8.90;99.90;;;;;;4997690;28;20058;-62
2023/12/18 12:33:42;;;;;;;23.38;15.20;;;8.90;99.90;;;;;;5015485;28;20108;-63
2023/12/18 12:36:09;;;;;;;20.30;14.48;;;8.80;99.90;;;;;;5012941;28;20061;-63
2023/12/18 12:38:36;;;;;;;26.75;14.10;;;8.90;99.90;;;;;;5014210;28;20064;-62